createdAt,value
2022-08-11T00:00:36.623Z,2.20
2022-08-11T00:03:23.957Z,2.23
2022-08-11T00:06:34.880Z,2.57
2022-08-11T00:09:38.908Z,2.30
2022-08-11T00:12:27.168Z,2.00
2022-08-11T00:15:14.270Z,1.93
2022-08-11T00:18:02.264Z,2.10
2022-08-11T00:20:49.788Z,2.30
2022-08-11T00:23:43.631Z,2.00
2022-08-11T00:26:31.520Z,1.93
2022-08-11T00:29:19.398Z,2.40
2022-08-11T00:32:08.949Z,1.90
2022-08-11T00:35:51.648Z,2.37
2022-08-11T00:38:04.678Z,2.10
2022-08-11T00:41:00.769Z,2.53
2022-08-11T00:44:00.898Z,2.13
2022-08-11T00:47:04.197Z,2.20
2022-08-11T00:50:03.701Z,2.43
2022-08-11T00:53:26.536Z,1.90
2022-08-11T00:56:40.078Z,3.43
2022-08-11T01:00:15.682Z,2.70
2022-08-11T01:03:26.235Z,2.67
2022-08-11T01:06:46.853Z,2.20
2022-08-11T01:09:48.727Z,2.20
2022-08-11T01:12:50.952Z,2.53
2022-08-11T01:16:09.564Z,5.67
2022-08-11T01:19:31.743Z,2.50
2022-08-11T01:22:36.868Z,2.23
2022-08-11T01:25:56.656Z,2.33
2022-08-11T01:29:21.086Z,2.03
2022-08-11T01:32:45.944Z,2.40
2022-08-11T01:35:53.303Z,2.50
2022-08-11T01:39:18.992Z,2.37
2022-08-11T01:42:54.966Z,2.30
2022-08-11T01:45:49.947Z,2.57
2022-08-11T01:48:43.776Z,2.30
2022-08-11T01:51:46.959Z,2.30
2022-08-11T01:54:42.183Z,2.10
2022-08-11T01:57:38.716Z,2.30
2022-08-11T02:00:30.891Z,2.40
2022-08-11T02:03:29.867Z,2.33
2022-08-11T02:06:48.691Z,2.80
2022-08-11T02:10:02.334Z,2.73
2022-08-11T02:12:52.894Z,2.60
2022-08-11T02:15:46.994Z,2.80
2022-08-11T02:18:51.760Z,2.33
2022-08-11T02:22:06.963Z,2.60
2022-08-11T02:25:03.077Z,2.20
2022-08-11T02:27:56.622Z,2.43
2022-08-11T02:32:14.567Z,2.73
2022-08-11T02:34:37.369Z,2.70
2022-08-11T02:37:35.846Z,2.30
2022-08-11T02:40:44.856Z,2.90
2022-08-11T02:43:48.045Z,2.60
2022-08-11T02:46:51.358Z,2.63
2022-08-11T02:50:06.927Z,2.80
2022-08-11T02:52:59.878Z,2.60
2022-08-11T02:55:59.039Z,2.57
2022-08-11T02:59:12.965Z,2.70
2022-08-11T03:02:05.361Z,2.80
2022-08-11T03:05:06.847Z,2.23
2022-08-11T03:08:09.731Z,2.57
2022-08-11T03:11:23.555Z,3.07
2022-08-11T03:14:42.305Z,3.00
2022-08-11T03:17:34.341Z,3.20
2022-08-11T03:20:38.277Z,2.83
2022-08-11T03:23:32.201Z,2.90
2022-08-11T03:26:31.972Z,2.80
2022-08-11T03:29:29.600Z,3.10
2022-08-11T03:32:29.237Z,2.67
2022-08-11T03:35:21.525Z,3.20
2022-08-11T03:38:13.931Z,2.87
2022-08-11T03:42:01.128Z,3.10
2022-08-11T03:45:03.383Z,3.00
2022-08-11T03:48:02.039Z,2.80
2022-08-11T03:50:59.061Z,3.20
2022-08-11T03:53:57.833Z,2.70
2022-08-11T03:57:31.535Z,3.03
2022-08-11T04:00:51.959Z,2.63
2022-08-11T04:04:25.565Z,2.67
2022-08-11T04:08:02.099Z,3.00
2022-08-11T04:11:15.509Z,2.63
2022-08-11T04:14:45.305Z,3.50
2022-08-11T04:17:54.382Z,3.63
2022-08-11T04:21:07.202Z,3.60
2022-08-11T04:24:39.773Z,3.33
2022-08-11T04:27:48.588Z,3.10
2022-08-11T04:30:57.339Z,3.27
2022-08-11T04:34:06.839Z,2.67
2022-08-11T04:37:34.635Z,2.87
2022-08-11T04:40:50.839Z,2.53
2022-08-11T04:44:16.696Z,2.93
2022-08-11T04:48:03.474Z,3.17
2022-08-11T04:51:26.189Z,2.90
2022-08-11T04:54:45.919Z,2.80
2022-08-11T04:57:59.959Z,2.93
2022-08-11T05:01:15.510Z,2.63
2022-08-11T05:04:40.139Z,2.50
2022-08-11T05:08:06.080Z,2.73
2022-08-11T05:11:08.310Z,2.77
2022-08-11T05:14:40.115Z,2.50
2022-08-11T05:17:55.254Z,2.30
2022-08-11T05:21:09.378Z,2.57
2022-08-11T05:24:30.472Z,2.33
2022-08-11T05:27:38.601Z,2.20
2022-08-11T05:30:47.752Z,2.67
2022-08-11T05:34:04.104Z,2.70
2022-08-11T05:37:11.591Z,2.73
2022-08-11T05:40:28.005Z,2.20
2022-08-11T05:43:34.354Z,2.50
2022-08-11T05:46:40.105Z,2.37
2022-08-11T05:49:49.734Z,2.70
2022-08-11T05:52:57.499Z,2.73
2022-08-11T05:56:04.400Z,2.97
2022-08-11T05:58:52.996Z,2.53
2022-08-11T06:01:40.477Z,2.40
2022-08-11T06:04:30.871Z,3.10
2022-08-11T06:07:18.033Z,3.17
2022-08-11T06:10:05.434Z,3.10
2022-08-11T06:12:55.952Z,3.40
2022-08-11T06:15:47.450Z,2.70
2022-08-11T06:18:35.152Z,2.70
2022-08-11T06:21:23.277Z,3.00
2022-08-11T06:24:13.697Z,2.90
2022-08-11T06:27:12.178Z,2.77
2022-08-11T06:30:03.234Z,4.27
2022-08-11T06:32:55.573Z,3.63
2022-08-11T06:35:52.854Z,3.00
2022-08-11T06:38:57.979Z,2.97
2022-08-11T06:41:50.766Z,3.10
2022-08-11T06:44:43.297Z,3.63
2022-08-11T06:47:31.593Z,3.10
2022-08-11T06:50:37.517Z,3.00
2022-08-11T06:53:24.699Z,2.83
2022-08-11T06:56:30.355Z,3.43
2022-08-11T06:59:36.621Z,3.10
2022-08-11T07:02:33.879Z,3.47
2022-08-11T07:05:28.788Z,3.50
2022-08-11T07:09:04.823Z,3.23
2022-08-11T07:12:26.786Z,3.33
2022-08-11T07:16:10.693Z,3.00
2022-08-11T07:18:57.693Z,3.33
2022-08-11T07:22:05.744Z,2.83
2022-08-11T07:25:16.108Z,2.70
2022-08-11T07:28:22.709Z,2.87
2022-08-11T07:31:17.046Z,2.97
2022-08-11T07:34:17.591Z,2.77
2022-08-11T07:37:12.739Z,2.50
2022-08-11T07:40:01.792Z,2.30
2022-08-11T07:42:49.223Z,2.83
2022-08-11T07:45:53.919Z,2.30
2022-08-11T07:49:01.074Z,2.60
2022-08-11T07:52:07.397Z,2.50
2022-08-11T07:54:57.345Z,2.47
2022-08-11T07:58:16.371Z,2.60
2022-08-11T08:01:25.282Z,2.33
2022-08-11T08:04:33.636Z,2.30
2022-08-11T08:07:40.221Z,2.60
2022-08-11T08:10:47.426Z,2.60
2022-08-11T08:13:54.234Z,2.63
2022-08-11T08:17:01.228Z,4.47
2022-08-11T08:19:51.104Z,2.60
2022-08-11T08:22:43.885Z,2.70
2022-08-11T08:25:38.539Z,2.40
2022-08-11T08:28:30.300Z,2.20
2022-08-11T08:31:20.404Z,2.37
2022-08-11T08:34:08.705Z,2.40
2022-08-11T08:36:57.245Z,2.40
2022-08-11T08:39:48.263Z,2.20
2022-08-11T08:42:45.282Z,2.20
2022-08-11T08:45:37.835Z,2.30
2022-08-11T08:48:28.592Z,2.20
2022-08-11T08:52:01.121Z,2.67
2022-08-11T08:54:44.951Z,2.50
2022-08-11T08:57:39.462Z,2.57
2022-08-11T09:00:40.841Z,2.53
2022-08-11T09:04:05.217Z,2.63
2022-08-11T09:06:35.749Z,2.30
2022-08-11T09:09:23.429Z,2.00
2022-08-11T09:12:11.680Z,2.43
2022-08-11T09:15:03.710Z,2.47
2022-08-11T09:18:03.758Z,2.47
2022-08-11T09:20:50.727Z,2.30
2022-08-11T09:24:07.808Z,2.30
2022-08-11T09:27:03.060Z,2.37
2022-08-11T09:29:50.350Z,2.57
2022-08-11T09:32:37.620Z,2.47
2022-08-11T09:35:27.042Z,2.70
2022-08-11T09:38:33.495Z,2.43
2022-08-11T09:41:20.364Z,2.50
2022-08-11T09:44:30.669Z,2.70
2022-08-11T09:47:25.415Z,2.23
2022-08-11T09:50:13.624Z,2.60
2022-08-11T09:53:35.923Z,2.60
2022-08-11T09:56:34.429Z,2.47
2022-08-11T09:59:24.142Z,2.67
2022-08-11T10:02:12.081Z,2.23
2022-08-11T10:05:20.620Z,2.47
2022-08-11T10:08:12.022Z,2.30
2022-08-11T10:11:01.093Z,2.13
2022-08-11T10:14:32.105Z,2.50
2022-08-11T10:17:14.502Z,2.50
2022-08-11T10:20:05.874Z,3.13
2022-08-11T10:23:10.871Z,2.93
2022-08-11T10:26:17.160Z,2.50
2022-08-11T10:29:26.749Z,3.10
2022-08-11T10:32:57.706Z,2.60
2022-08-11T10:35:46.825Z,2.83
2022-08-11T10:38:34.212Z,2.70
2022-08-11T10:42:01.836Z,2.67
2022-08-11T10:44:49.237Z,2.37
2022-08-11T10:47:35.028Z,2.70
2022-08-11T10:50:39.703Z,2.50
2022-08-11T10:53:44.173Z,2.70
2022-08-11T10:56:54.582Z,4.73
2022-08-11T10:59:42.923Z,2.60
2022-08-11T11:02:30.726Z,2.27
2022-08-11T11:05:26.071Z,2.20
2022-08-11T11:08:29.395Z,2.60
2022-08-11T11:11:19.322Z,3.20
2022-08-11T11:14:46.756Z,2.50
2022-08-11T11:18:01.676Z,2.30
2022-08-11T11:20:53.161Z,2.00
2022-08-11T11:23:47.603Z,1.90
2022-08-11T11:26:44.576Z,2.33
2022-08-11T11:29:54.749Z,2.20
2022-08-11T11:32:50.046Z,2.40
2022-08-11T11:35:54.026Z,2.40
2022-08-11T11:38:42.419Z,2.40
2022-08-11T11:41:30.133Z,2.70
2022-08-11T11:44:17.182Z,2.00
2022-08-11T11:47:07.541Z,2.10
2022-08-11T11:49:54.728Z,1.97
2022-08-11T11:52:42.294Z,2.00
2022-08-11T11:55:30.692Z,2.10
2022-08-11T11:58:36.784Z,2.37
2022-08-11T12:01:25.718Z,2.00
2022-08-11T12:04:16.565Z,2.20
2022-08-11T12:07:17.840Z,1.90
2022-08-11T12:10:09.829Z,1.83
2022-08-11T12:13:17.301Z,1.80
2022-08-11T12:16:33.300Z,1.80
2022-08-11T12:19:16.581Z,1.53
2022-08-11T12:22:20.969Z,1.57
2022-08-11T12:25:37.968Z,1.70
2022-08-11T12:28:25.494Z,1.50
2022-08-11T12:31:16.184Z,2.10
2022-08-11T12:34:04.317Z,1.53
2022-08-11T12:36:56.320Z,1.97
2022-08-11T12:40:12.930Z,1.70
2022-08-11T12:43:37.986Z,1.90
2022-08-11T12:46:32.823Z,1.50
2022-08-11T12:49:45.220Z,3.53
2022-08-11T12:52:36.995Z,4.23
2022-08-11T12:55:40.361Z,1.90
2022-08-11T12:58:28.953Z,1.67
2022-08-11T13:01:33.577Z,1.70
2022-08-11T13:04:38.226Z,1.50
2022-08-11T13:07:26.576Z,1.63
2022-08-11T13:10:52.817Z,1.50
2022-08-11T13:13:54.214Z,1.70
2022-08-11T13:17:18.105Z,1.50
2022-08-11T13:20:06.407Z,1.40
2022-08-11T13:22:55.603Z,1.37
2022-08-11T13:25:44.411Z,1.67
2022-08-11T13:28:34.416Z,1.40
2022-08-11T13:31:21.753Z,1.30
2022-08-11T13:34:09.399Z,5.73
2022-08-11T13:37:00.521Z,1.50
2022-08-11T13:39:48.168Z,1.30
2022-08-11T13:42:37.601Z,1.50
2022-08-11T13:45:25.653Z,1.33
2022-08-11T13:48:13.920Z,1.30
2022-08-11T13:51:17.990Z,1.73
2022-08-11T13:54:07.643Z,1.50
2022-08-11T13:56:58.220Z,1.50
2022-08-11T13:59:52.510Z,1.30
2022-08-11T14:02:43.538Z,1.03
2022-08-11T14:05:35.488Z,1.20
2022-08-11T14:08:38.466Z,1.40
2022-08-11T14:12:23.262Z,1.20
2022-08-11T14:15:07.622Z,1.23
2022-08-11T14:18:01.813Z,1.37
2022-08-11T14:21:10.955Z,1.20
2022-08-11T14:24:01.257Z,1.30
2022-08-11T14:26:49.295Z,1.47
2022-08-11T14:29:45.203Z,1.20
2022-08-11T14:32:52.732Z,1.27
2022-08-11T14:35:40.056Z,1.27
2022-08-11T14:38:31.531Z,1.30
2022-08-11T14:41:37.251Z,1.30
2022-08-11T14:45:04.048Z,1.47
2022-08-11T14:47:59.979Z,3.60
2022-08-11T14:50:49.109Z,1.40
2022-08-11T14:53:41.371Z,1.50
2022-08-11T14:56:46.389Z,1.30
2022-08-11T14:59:35.138Z,1.37
2022-08-11T15:02:40.606Z,1.30
2022-08-11T15:05:30.827Z,1.40
2022-08-11T15:08:28.227Z,2.87
2022-08-11T15:11:41.500Z,1.77
2022-08-11T15:14:58.258Z,1.50
2022-08-11T15:17:48.756Z,1.20
2022-08-11T15:20:56.039Z,1.27
2022-08-11T15:24:00.693Z,1.37
2022-08-11T15:27:07.811Z,1.40
2022-08-11T15:30:32.557Z,1.53
2022-08-11T15:33:39.642Z,1.53
2022-08-11T15:36:47.781Z,1.33
2022-08-11T15:40:02.503Z,1.50
2022-08-11T15:43:15.857Z,1.60
2022-08-11T15:46:08.328Z,1.40
2022-08-11T15:49:00.577Z,1.50
2022-08-11T15:52:00.340Z,1.60
2022-08-11T15:54:50.274Z,3.20
2022-08-11T15:58:02.016Z,1.10
2022-08-11T16:01:09.478Z,1.60
2022-08-11T16:04:13.901Z,1.80
2022-08-11T16:07:06.589Z,1.50
2022-08-11T16:10:00.463Z,1.20
2022-08-11T16:13:22.590Z,1.20
2022-08-11T16:16:15.558Z,1.17
2022-08-11T16:19:04.964Z,1.40
2022-08-11T16:21:54.332Z,1.30
2022-08-11T16:27:05.339Z,1.17
2022-08-11T16:28:00.459Z,1.30
2022-08-11T16:30:50.457Z,1.20
2022-08-11T16:33:49.765Z,1.40
2022-08-11T16:36:55.300Z,1.40
2022-08-11T16:39:44.596Z,1.17
2022-08-11T16:43:04.401Z,1.30
2022-08-11T16:46:16.839Z,3.40
2022-08-11T16:49:07.387Z,1.40
2022-08-11T16:51:54.189Z,1.20
2022-08-11T16:54:44.527Z,2.10
2022-08-11T16:57:51.601Z,1.80
2022-08-11T17:00:41.521Z,1.30
2022-08-11T17:03:45.471Z,1.10
2022-08-11T17:06:51.838Z,1.27
2022-08-11T17:09:57.093Z,1.43
2022-08-11T17:13:07.620Z,1.60
2022-08-11T17:16:12.269Z,1.30
2022-08-11T17:19:02.498Z,1.20
2022-08-11T17:22:14.090Z,1.40
2022-08-11T17:25:02.464Z,1.57
2022-08-11T17:27:53.702Z,1.30
2022-08-11T17:31:01.481Z,1.17
2022-08-11T17:34:19.352Z,1.37
2022-08-11T17:37:06.308Z,1.90
2022-08-11T17:39:54.986Z,1.37
2022-08-11T17:43:02.390Z,1.40
2022-08-11T17:46:08.437Z,2.40
2022-08-11T17:48:55.493Z,1.60
2022-08-11T17:52:03.332Z,4.57
2022-08-11T17:55:10.572Z,2.23
2022-08-11T17:58:19.616Z,1.47
2022-08-11T18:01:10.061Z,1.40
2022-08-11T18:03:58.811Z,1.50
2022-08-11T18:06:48.267Z,1.30
2022-08-11T18:09:52.852Z,1.37
2022-08-11T18:12:57.569Z,1.70
2022-08-11T18:16:02.745Z,1.30
2022-08-11T18:19:09.775Z,1.53
2022-08-11T18:22:22.559Z,1.60
2022-08-11T18:25:31.963Z,1.60
2022-08-11T18:28:42.203Z,1.63
2022-08-11T18:31:47.693Z,1.73
2022-08-11T18:34:59.020Z,1.60
2022-08-11T18:38:07.468Z,1.53
2022-08-11T18:41:12.560Z,1.47
2022-08-11T18:44:24.497Z,1.70
2022-08-11T18:47:31.544Z,1.70
2022-08-11T18:50:39.941Z,1.30
2022-08-11T18:53:47.883Z,1.47
2022-08-11T18:56:53.531Z,1.60
2022-08-11T19:00:00.633Z,1.23
2022-08-11T19:03:06.864Z,1.40
2022-08-11T19:06:38.234Z,1.40
2022-08-11T19:09:39.297Z,1.50
2022-08-11T19:12:47.255Z,1.50
2022-08-11T19:15:54.360Z,1.50
2022-08-11T19:19:00.361Z,1.70
2022-08-11T19:22:07.602Z,1.50
2022-08-11T19:25:14.291Z,1.60
2022-08-11T19:28:20.323Z,1.70
2022-08-11T19:31:27.573Z,1.37
2022-08-11T19:34:34.798Z,1.40
2022-08-11T19:37:44.441Z,1.67
2022-08-11T19:40:49.624Z,1.30
2022-08-11T19:43:56.777Z,1.53
2022-08-11T19:47:02.672Z,1.77
2022-08-11T19:50:13.141Z,1.47
2022-08-11T19:53:19.279Z,1.60
2022-08-11T19:56:24.953Z,1.80
2022-08-11T19:59:30.309Z,1.70
2022-08-11T20:02:35.588Z,2.00
2022-08-11T20:05:40.416Z,1.73
2022-08-11T20:09:07.826Z,1.47
2022-08-11T20:12:15.264Z,1.40
2022-08-11T20:15:22.506Z,3.03
2022-08-11T20:18:29.657Z,2.57
2022-08-11T20:21:34.907Z,2.30
2022-08-11T20:24:41.712Z,2.47
2022-08-11T20:27:46.252Z,1.73
2022-08-11T20:30:51.853Z,1.80
2022-08-11T20:33:58.576Z,1.60
2022-08-11T20:37:05.152Z,2.20
2022-08-11T20:40:13.213Z,1.70
2022-08-11T20:44:07.533Z,1.80
2022-08-11T20:46:44.319Z,1.70
2022-08-11T20:49:56.665Z,1.57
2022-08-11T20:53:02.544Z,1.70
2022-08-11T20:56:09.916Z,1.90
2022-08-11T20:59:18.929Z,1.83
2022-08-11T21:02:29.948Z,1.90
2022-08-11T21:06:09.032Z,1.67
2022-08-11T21:09:01.591Z,1.73
2022-08-11T21:12:09.741Z,1.70
2022-08-11T21:15:30.796Z,1.90
2022-08-11T21:18:46.691Z,2.10
2022-08-11T21:21:52.360Z,2.20
2022-08-11T21:24:59.363Z,2.17
2022-08-11T21:28:08.563Z,1.93
2022-08-11T21:31:14.677Z,1.90
2022-08-11T21:34:20.327Z,1.97
2022-08-11T21:37:26.455Z,1.87
2022-08-11T21:40:33.423Z,1.97
2022-08-11T21:43:40.422Z,2.30
2022-08-11T21:46:47.272Z,2.10
2022-08-11T21:49:54.057Z,2.10
2022-08-11T21:53:00.403Z,2.10
2022-08-11T21:56:05.508Z,2.60
2022-08-11T21:59:23.410Z,2.10
2022-08-11T22:02:29.173Z,2.10
2022-08-11T22:05:34.996Z,2.33
2022-08-11T22:08:39.231Z,2.40
2022-08-11T22:11:47.221Z,2.67
2022-08-11T22:14:55.720Z,2.60
2022-08-11T22:18:01.185Z,2.20
2022-08-11T22:21:07.277Z,2.40
2022-08-11T22:24:12.440Z,2.23
2022-08-11T22:27:24.430Z,2.67
2022-08-11T22:30:31.160Z,2.63
2022-08-11T22:33:42.071Z,2.20
2022-08-11T22:37:07.143Z,2.47
2022-08-11T22:40:13.213Z,2.77
2022-08-11T22:43:18.047Z,2.80
2022-08-11T22:46:25.025Z,2.50
2022-08-11T22:49:31.088Z,2.50
2022-08-11T22:52:55.932Z,2.37
2022-08-11T22:56:00.036Z,2.70
2022-08-11T22:59:06.323Z,2.63
2022-08-11T23:02:12.787Z,2.77
2022-08-11T23:05:18.518Z,2.97
2022-08-11T23:08:24.352Z,2.70
2022-08-11T23:11:33.115Z,2.80
2022-08-11T23:14:55.264Z,2.90
2022-08-11T23:18:01.560Z,2.37
2022-08-11T23:21:07.720Z,2.90
2022-08-11T23:24:12.523Z,2.37
2022-08-11T23:27:18.840Z,2.80
2022-08-11T23:30:24.683Z,2.80
2022-08-11T23:33:34.929Z,2.87
2022-08-11T23:36:47.386Z,2.87
2022-08-11T23:39:52.088Z,2.83
2022-08-11T23:42:56.822Z,2.60
2022-08-11T23:46:01.372Z,2.80
2022-08-11T23:49:11.996Z,2.70
2022-08-11T23:52:18.223Z,3.10
2022-08-11T23:55:23.042Z,3.63
2022-08-11T23:58:28.281Z,3.43
